WAT9803 KMQS-KAGC
Flight info
| Callsign | WAT9803 |
|---|---|
| Flight time | 0h 41m |
| Altitude | 30000 |
| Route | MXE PENSY J110 VINSE |
| Aircraft | E55P/M-SBDFGHJ2RWY/LB2 |
Departure
| Time | 2026-05-07 14:00 |
|---|---|
| Airport | Chester County G O Carlson Airport (KMQS) |
Arrival
| Time | 2026-05-07 14:41 |
|---|---|
| Airport | Allegheny County Airport (KAGC) |
| Time | Latitude | Longitude | Altitude | Speed | Heading |
|---|---|---|---|---|---|
| 2026-05-07 13:44 | 39.98007 | -75.86430 | 644 ft | 0 kts | 192° |
| 2026-05-07 13:55 | 39.98001 | -75.86431 | 644 ft | 2 kts | 176° |
| 2026-05-07 13:56 | 39.97980 | -75.86404 | 644 ft | 5 kts | 122° |
| 2026-05-07 13:56 | 39.97955 | -75.86366 | 644 ft | 5 kts | 131° |
| 2026-05-07 13:56 | 39.97934 | -75.86325 | 644 ft | 6 kts | 107° |
| 2026-05-07 13:56 | 39.97923 | -75.86264 | 645 ft | 6 kts | 102° |
| 2026-05-07 13:57 | 39.97913 | -75.86201 | 645 ft | 6 kts | 101° |
| 2026-05-07 13:57 | 39.97903 | -75.86136 | 645 ft | 7 kts | 101° |
| 2026-05-07 13:57 | 39.97892 | -75.86067 | 644 ft | 7 kts | 102° |
| 2026-05-07 13:57 | 39.97880 | -75.85994 | 644 ft | 8 kts | 102° |
| 2026-05-07 13:58 | 39.97868 | -75.85920 | 644 ft | 8 kts | 102° |
| 2026-05-07 13:58 | 39.97855 | -75.85841 | 644 ft | 8 kts | 101° |
| 2026-05-07 13:58 | 39.97843 | -75.85762 | 644 ft | 9 kts | 101° |
| 2026-05-07 13:58 | 39.97829 | -75.85677 | 644 ft | 9 kts | 102° |
| 2026-05-07 13:59 | 39.97801 | -75.85600 | 644 ft | 9 kts | 172° |
| 2026-05-07 13:59 | 39.97752 | -75.85613 | 644 ft | 4 kts | 262° |
| 2026-05-07 13:59 | 39.97754 | -75.85651 | 644 ft | 4 kts | 282° |
| 2026-05-07 13:59 | 39.97802 | -75.85948 | 645 ft | 83 kts | 282° |
| 2026-05-07 14:00 | 39.98003 | -75.87148 | 853 ft | 159 kts | 283° |
| 2026-05-07 14:00 | 39.98021 | -75.88676 | 1894 ft | 168 kts | 266° |
| 2026-05-07 14:00 | 39.97623 | -75.90268 | 2419 ft | 193 kts | 250° |
| 2026-05-07 14:00 | 39.97014 | -75.91875 | 3386 ft | 190 kts | 248° |
| 2026-05-07 14:01 | 39.96381 | -75.93461 | 4080 ft | 202 kts | 249° |
| 2026-05-07 14:01 | 39.95710 | -75.95223 | 4674 ft | 220 kts | 249° |
| 2026-05-07 14:01 | 39.95003 | -75.97148 | 5312 ft | 235 kts | 249° |
| 2026-05-07 14:01 | 39.94315 | -75.99165 | 6225 ft | 236 kts | 254° |
| 2026-05-07 14:02 | 39.93900 | -76.01228 | 7359 ft | 227 kts | 257° |
| 2026-05-07 14:02 | 39.93504 | -76.03243 | 8314 ft | 225 kts | 257° |
| 2026-05-07 14:02 | 39.93129 | -76.05267 | 9162 ft | 228 kts | 257° |
| 2026-05-07 14:02 | 39.92746 | -76.07330 | 10028 ft | 229 kts | 257° |
| 2026-05-07 14:03 | 39.92357 | -76.09435 | 10591 ft | 241 kts | 256° |
| 2026-05-07 14:03 | 39.91936 | -76.11687 | 11003 ft | 258 kts | 256° |
| 2026-05-07 14:03 | 39.91492 | -76.14093 | 11410 ft | 274 kts | 256° |
| 2026-05-07 14:03 | 39.91016 | -76.16661 | 11818 ft | 287 kts | 256° |
| 2026-05-07 14:04 | 39.90734 | -76.19383 | 12440 ft | 295 kts | 271° |
| 2026-05-07 14:04 | 39.90905 | -76.22115 | 13310 ft | 290 kts | 267° |
| 2026-05-07 14:04 | 39.91016 | -76.24797 | 14044 ft | 292 kts | 270° |
| 2026-05-07 14:04 | 39.91111 | -76.27457 | 14664 ft | 294 kts | 269° |
| 2026-05-07 14:05 | 39.91234 | -76.30121 | 15344 ft | 295 kts | 270° |
| 2026-05-07 14:05 | 39.91348 | -76.32835 | 16014 ft | 295 kts | 270° |
| 2026-05-07 14:05 | 39.91463 | -76.35589 | 16649 ft | 297 kts | 270° |
| 2026-05-07 14:05 | 39.91575 | -76.38353 | 17273 ft | 298 kts | 270° |
| 2026-05-07 14:06 | 39.91693 | -76.41088 | 17824 ft | 300 kts | 271° |
| 2026-05-07 14:06 | 39.91808 | -76.43842 | 18475 ft | 299 kts | 270° |
| 2026-05-07 14:06 | 39.91923 | -76.46581 | 19191 ft | 295 kts | 270° |
| 2026-05-07 14:06 | 39.92036 | -76.49250 | 20014 ft | 288 kts | 269° |
| 2026-05-07 14:07 | 39.92145 | -76.51833 | 20857 ft | 279 kts | 268° |
| 2026-05-07 14:07 | 39.92248 | -76.54370 | 21671 ft | 271 kts | 268° |
| 2026-05-07 14:07 | 39.92342 | -76.56795 | 22437 ft | 264 kts | 268° |
| 2026-05-07 14:07 | 39.92444 | -76.59167 | 23114 ft | 259 kts | 267° |
| 2026-05-07 14:08 | 39.92536 | -76.61518 | 23747 ft | 255 kts | 266° |
| 2026-05-07 14:08 | 39.92627 | -76.63877 | 24365 ft | 251 kts | 265° |
| 2026-05-07 14:08 | 39.92712 | -76.66223 | 24964 ft | 249 kts | 265° |
| 2026-05-07 14:08 | 39.92805 | -76.68504 | 25556 ft | 247 kts | 265° |
| 2026-05-07 14:09 | 39.92887 | -76.70766 | 26254 ft | 241 kts | 265° |
| 2026-05-07 14:09 | 39.92984 | -76.72971 | 26847 ft | 237 kts | 264° |
| 2026-05-07 14:09 | 39.93066 | -76.75116 | 27398 ft | 235 kts | 265° |
| 2026-05-07 14:09 | 39.93147 | -76.77330 | 27965 ft | 232 kts | 265° |
| 2026-05-07 14:10 | 39.93238 | -76.79547 | 28574 ft | 228 kts | 265° |
| 2026-05-07 14:10 | 39.93315 | -76.81625 | 29145 ft | 224 kts | 265° |
| 2026-05-07 14:10 | 39.93396 | -76.83649 | 29617 ft | 222 kts | 265° |
| 2026-05-07 14:10 | 39.93480 | -76.85761 | 29939 ft | 225 kts | 264° |
| 2026-05-07 14:11 | 39.93554 | -76.87958 | 29979 ft | 238 kts | 265° |
| 2026-05-07 14:11 | 39.93634 | -76.90189 | 29993 ft | 249 kts | 265° |
| 2026-05-07 14:11 | 39.93727 | -76.92571 | 29991 ft | 261 kts | 265° |
| 2026-05-07 14:11 | 39.93814 | -76.95064 | 29989 ft | 271 kts | 265° |
| 2026-05-07 14:12 | 39.93911 | -76.97602 | 29985 ft | 280 kts | 265° |
| 2026-05-07 14:12 | 39.94011 | -77.00193 | 29986 ft | 289 kts | 266° |
| 2026-05-07 14:12 | 39.94102 | -77.02869 | 29979 ft | 296 kts | 265° |
| 2026-05-07 14:13 | 39.94312 | -77.08401 | 29975 ft | 303 kts | 266° |
| 2026-05-07 14:13 | 39.94513 | -77.13895 | 29965 ft | 304 kts | 265° |
| 2026-05-07 14:14 | 39.94705 | -77.19534 | 29963 ft | 305 kts | 265° |
| 2026-05-07 14:14 | 39.94904 | -77.25221 | 29962 ft | 305 kts | 266° |
| 2026-05-07 14:15 | 39.95100 | -77.30801 | 29961 ft | 305 kts | 265° |
| 2026-05-07 14:15 | 39.95287 | -77.36332 | 29965 ft | 305 kts | 266° |
| 2026-05-07 14:16 | 39.95472 | -77.41868 | 29963 ft | 305 kts | 265° |
| 2026-05-07 14:16 | 39.95650 | -77.47409 | 29961 ft | 305 kts | 265° |
| 2026-05-07 14:17 | 39.95829 | -77.52987 | 29955 ft | 305 kts | 266° |
| 2026-05-07 14:17 | 39.96007 | -77.58649 | 29957 ft | 304 kts | 266° |
| 2026-05-07 14:18 | 39.96190 | -77.64612 | 29960 ft | 304 kts | 266° |
| 2026-05-07 14:18 | 39.96369 | -77.70306 | 29988 ft | 305 kts | 265° |
| 2026-05-07 14:19 | 39.96536 | -77.76077 | 29989 ft | 306 kts | 265° |
| 2026-05-07 14:19 | 39.96707 | -77.81741 | 29980 ft | 308 kts | 264° |
| 2026-05-07 14:20 | 39.96865 | -77.87382 | 29972 ft | 309 kts | 265° |
| 2026-05-07 14:20 | 39.97051 | -77.93218 | 29838 ft | 311 kts | 264° |
| 2026-05-07 14:20 | 39.97199 | -77.96099 | 29459 ft | 318 kts | 271° |
| 2026-05-07 14:21 | 39.97837 | -77.98941 | 29134 ft | 321 kts | 274° |
| 2026-05-07 14:21 | 39.98371 | -78.01765 | 28792 ft | 322 kts | 274° |
| 2026-05-07 14:21 | 39.98958 | -78.04606 | 28445 ft | 323 kts | 274° |
| 2026-05-07 14:21 | 39.99529 | -78.07457 | 28093 ft | 324 kts | 274° |
| 2026-05-07 14:22 | 40.00124 | -78.10387 | 27741 ft | 323 kts | 274° |
| 2026-05-07 14:22 | 40.00701 | -78.13232 | 27386 ft | 324 kts | 275° |
| 2026-05-07 14:22 | 40.01292 | -78.16194 | 27010 ft | 324 kts | 275° |
| 2026-05-07 14:22 | 40.01873 | -78.19046 | 26652 ft | 323 kts | 275° |
| 2026-05-07 14:23 | 40.02464 | -78.21973 | 26274 ft | 326 kts | 275° |
| 2026-05-07 14:23 | 40.03034 | -78.24859 | 25926 ft | 329 kts | 275° |
| 2026-05-07 14:23 | 40.03642 | -78.27846 | 25560 ft | 332 kts | 276° |
| 2026-05-07 14:23 | 40.04217 | -78.30733 | 25185 ft | 334 kts | 276° |
| 2026-05-07 14:24 | 40.04814 | -78.33706 | 24837 ft | 333 kts | 276° |
| 2026-05-07 14:24 | 40.05400 | -78.36608 | 24472 ft | 331 kts | 276° |
| 2026-05-07 14:24 | 40.05978 | -78.39495 | 24109 ft | 327 kts | 276° |
| 2026-05-07 14:24 | 40.06544 | -78.42358 | 23746 ft | 324 kts | 276° |
| 2026-05-07 14:25 | 40.07116 | -78.45220 | 23366 ft | 322 kts | 277° |
| 2026-05-07 14:25 | 40.07676 | -78.48041 | 22993 ft | 320 kts | 277° |
| 2026-05-07 14:25 | 40.08228 | -78.50847 | 22614 ft | 319 kts | 277° |
| 2026-05-07 14:25 | 40.08786 | -78.53627 | 22242 ft | 317 kts | 277° |
| 2026-05-07 14:26 | 40.09340 | -78.56430 | 21861 ft | 316 kts | 277° |
| 2026-05-07 14:26 | 40.09901 | -78.59300 | 21473 ft | 315 kts | 278° |
| 2026-05-07 14:26 | 40.10460 | -78.62107 | 21083 ft | 314 kts | 278° |
| 2026-05-07 14:26 | 40.11015 | -78.64928 | 20690 ft | 313 kts | 279° |
| 2026-05-07 14:27 | 40.11567 | -78.67735 | 20313 ft | 312 kts | 279° |
| 2026-05-07 14:27 | 40.12122 | -78.70559 | 19950 ft | 311 kts | 279° |
| 2026-05-07 14:27 | 40.12678 | -78.73382 | 19485 ft | 313 kts | 279° |
| 2026-05-07 14:27 | 40.13233 | -78.76229 | 19014 ft | 314 kts | 279° |
| 2026-05-07 14:28 | 40.13802 | -78.79127 | 18534 ft | 316 kts | 280° |
| 2026-05-07 14:28 | 40.14365 | -78.81988 | 18060 ft | 316 kts | 280° |
| 2026-05-07 14:28 | 40.14929 | -78.84881 | 17562 ft | 315 kts | 281° |
| 2026-05-07 14:28 | 40.15482 | -78.87696 | 17051 ft | 312 kts | 281° |
| 2026-05-07 14:29 | 40.16031 | -78.90532 | 16543 ft | 309 kts | 280° |
| 2026-05-07 14:29 | 40.16581 | -78.93353 | 16017 ft | 307 kts | 281° |
| 2026-05-07 14:29 | 40.17131 | -78.96164 | 15589 ft | 307 kts | 280° |
| 2026-05-07 14:29 | 40.17662 | -78.98936 | 15183 ft | 309 kts | 281° |
| 2026-05-07 14:30 | 40.18209 | -79.01749 | 14766 ft | 311 kts | 281° |
| 2026-05-07 14:30 | 40.18746 | -79.04534 | 14365 ft | 312 kts | 281° |
| 2026-05-07 14:30 | 40.19288 | -79.07340 | 13964 ft | 312 kts | 281° |
| 2026-05-07 14:30 | 40.19831 | -79.10143 | 13548 ft | 312 kts | 281° |
| 2026-05-07 14:31 | 40.20357 | -79.12878 | 13132 ft | 312 kts | 281° |
| 2026-05-07 14:31 | 40.20904 | -79.15728 | 12626 ft | 313 kts | 281° |
| 2026-05-07 14:31 | 40.21443 | -79.18542 | 12145 ft | 314 kts | 281° |
| 2026-05-07 14:31 | 40.21981 | -79.21351 | 11661 ft | 314 kts | 281° |
| 2026-05-07 14:32 | 40.22525 | -79.24183 | 11259 ft | 311 kts | 282° |
| 2026-05-07 14:32 | 40.23047 | -79.26915 | 10876 ft | 308 kts | 282° |
| 2026-05-07 14:32 | 40.23572 | -79.29673 | 10485 ft | 305 kts | 282° |
| 2026-05-07 14:32 | 40.24093 | -79.32390 | 10103 ft | 302 kts | 282° |
| 2026-05-07 14:33 | 40.24609 | -79.35099 | 9997 ft | 302 kts | 282° |
| 2026-05-07 14:33 | 40.25116 | -79.37779 | 9980 ft | 301 kts | 282° |
| 2026-05-07 14:33 | 40.25627 | -79.40455 | 9980 ft | 299 kts | 282° |
| 2026-05-07 14:33 | 40.26133 | -79.43129 | 9984 ft | 298 kts | 282° |
| 2026-05-07 14:34 | 40.26630 | -79.45744 | 9991 ft | 292 kts | 282° |
| 2026-05-07 14:34 | 40.27102 | -79.48199 | 9978 ft | 264 kts | 282° |
| 2026-05-07 14:34 | 40.27548 | -79.50468 | 9846 ft | 245 kts | 283° |
| 2026-05-07 14:34 | 40.27963 | -79.52594 | 9492 ft | 238 kts | 283° |
| 2026-05-07 14:35 | 40.28513 | -79.54608 | 9152 ft | 232 kts | 289° |
| 2026-05-07 14:35 | 40.29083 | -79.56585 | 8811 ft | 228 kts | 289° |
| 2026-05-07 14:35 | 40.29827 | -79.58418 | 8319 ft | 219 kts | 298° |
| 2026-05-07 14:35 | 40.30602 | -79.60182 | 7444 ft | 224 kts | 298° |
| 2026-05-07 14:36 | 40.31411 | -79.62001 | 6503 ft | 226 kts | 299° |
| 2026-05-07 14:36 | 40.32210 | -79.63795 | 5619 ft | 227 kts | 300° |
| 2026-05-07 14:36 | 40.33023 | -79.65613 | 4812 ft | 223 kts | 300° |
| 2026-05-07 14:36 | 40.33819 | -79.67395 | 4005 ft | 221 kts | 300° |
| 2026-05-07 14:37 | 40.34605 | -79.69165 | 3283 ft | 224 kts | 298° |
| 2026-05-07 14:37 | 40.34962 | -79.73204 | 2541 ft | 219 kts | 271° |
| 2026-05-07 14:37 | 40.35011 | -79.75256 | 2492 ft | 218 kts | 271° |
| 2026-05-07 14:38 | 40.35063 | -79.77283 | 2483 ft | 215 kts | 272° |
| 2026-05-07 14:38 | 40.35118 | -79.79287 | 2488 ft | 211 kts | 271° |
| 2026-05-07 14:38 | 40.35172 | -79.81250 | 2484 ft | 205 kts | 271° |
| 2026-05-07 14:38 | 40.35222 | -79.83086 | 2472 ft | 189 kts | 271° |
| 2026-05-07 14:39 | 40.35267 | -79.84712 | 2370 ft | 158 kts | 271° |
| 2026-05-07 14:39 | 40.35303 | -79.86056 | 2149 ft | 135 kts | 271° |
| 2026-05-07 14:39 | 40.35335 | -79.87224 | 1950 ft | 118 kts | 270° |
| 2026-05-07 14:39 | 40.35371 | -79.88321 | 1803 ft | 122 kts | 272° |
| 2026-05-07 14:40 | 40.35413 | -79.89399 | 1649 ft | 115 kts | 270° |
| 2026-05-07 14:40 | 40.35422 | -79.90449 | 1507 ft | 113 kts | 271° |
| 2026-05-07 14:40 | 40.35431 | -79.91507 | 1351 ft | 113 kts | 268° |
| 2026-05-07 14:40 | 40.35431 | -79.92515 | 1255 ft | 101 kts | 269° |
| 2026-05-07 14:41 | 40.35426 | -79.93323 | 1254 ft | 68 kts | 271° |
| 2026-05-07 14:41 | 40.35424 | -79.93690 | 1254 ft | 13 kts | 266° |
| 2026-05-07 14:41 | 40.35387 | -79.93741 | 1254 ft | 7 kts | 185° |
| 2026-05-07 14:41 | 40.35331 | -79.93740 | 1254 ft | 8 kts | 173° |
| 2026-05-07 14:42 | 40.35280 | -79.93762 | 1254 ft | 7 kts | 219° |
| 2026-05-07 14:42 | 40.35270 | -79.93773 | 1254 ft | 0 kts | 221° |
| 2026-05-07 14:42 | 40.35265 | -79.93779 | 1254 ft | 1 kts | 221° |
| 2026-05-07 14:42 | 40.35251 | -79.93795 | 1254 ft | 3 kts | 221° |
| 2026-05-07 14:43 | 40.35246 | -79.93800 | 1254 ft | 0 kts | 221° |